createdAt,value
2022-08-20T00:02:50.850Z,99885.63
2022-08-20T00:06:07.992Z,99868.56
2022-08-20T00:09:09.662Z,99883.12
2022-08-20T00:12:13.520Z,99885.16
2022-08-20T00:15:22.053Z,99882.22
2022-08-20T00:18:24.312Z,99881.25
2022-08-20T00:21:26.688Z,99888.91
2022-08-20T00:24:29.669Z,99891.84
2022-08-20T00:27:31.509Z,99872.63
2022-08-20T00:30:36.078Z,99855.53
2022-08-20T00:33:38.942Z,99839.25
2022-08-20T00:36:40.638Z,99826.47
2022-08-20T00:39:42.693Z,99819.59
2022-08-20T00:42:48.704Z,99778.34
2022-08-20T00:45:51.137Z,99721.38
2022-08-20T00:48:55.998Z,99715.47
2022-08-20T00:52:19.383Z,99701.63
2022-08-20T00:55:26.494Z,99695.38
2022-08-20T00:58:32.421Z,99702.00
2022-08-20T01:01:41.958Z,99692.53
2022-08-20T01:04:56.869Z,99679.56
2022-08-20T01:07:58.653Z,99677.16
2022-08-20T01:11:20.806Z,99676.72
2022-08-20T01:14:38.978Z,99678.25
2022-08-20T01:17:46.277Z,99685.78
2022-08-20T01:21:08.514Z,99683.19
2022-08-20T01:24:34.187Z,99681.22
2022-08-20T01:27:42.709Z,99676.84
2022-08-20T01:30:45.447Z,99681.53
2022-08-20T01:33:48.112Z,99687.44
2022-08-20T01:36:53.524Z,99688.59
2022-08-20T01:39:55.294Z,99690.00
2022-08-20T01:42:59.269Z,99693.78
2022-08-20T01:46:01.843Z,99708.50
2022-08-20T01:49:13.661Z,99708.06
2022-08-20T01:52:59.345Z,99700.81
2022-08-20T01:56:03.218Z,99701.22
2022-08-20T01:59:09.442Z,99702.66
2022-08-20T02:02:12.823Z,99707.66
2022-08-20T02:05:14.451Z,99711.47
2022-08-20T02:08:16.463Z,99701.53
2022-08-20T02:11:18.361Z,99718.34
2022-08-20T02:14:20.604Z,99718.63
2022-08-20T02:17:24.737Z,99719.78
2022-08-20T02:20:30.232Z,99720.81
2022-08-20T02:23:31.883Z,99728.13
2022-08-20T02:26:37.825Z,99740.44
2022-08-20T02:29:40.062Z,99739.97
2022-08-20T02:32:42.136Z,99737.94
2022-08-20T02:35:46.871Z,99734.31
2022-08-20T02:38:48.561Z,99719.53
2022-08-20T02:41:50.542Z,99720.13
2022-08-20T02:44:53.107Z,99707.06
2022-08-20T02:47:57.079Z,99708.38
2022-08-20T02:51:02.107Z,99719.03
2022-08-20T02:54:04.161Z,99724.53
2022-08-20T02:57:06.135Z,99724.63
2022-08-20T03:00:21.035Z,99713.56
2022-08-20T03:03:24.494Z,99718.78
2022-08-20T03:06:27.825Z,99735.09
2022-08-20T03:09:29.732Z,99742.84
2022-08-20T03:12:31.562Z,99741.78
2022-08-20T03:15:34.865Z,99754.03
2022-08-20T03:18:41.238Z,99765.78
2022-08-20T03:21:43.004Z,99776.50
2022-08-20T03:24:45.602Z,99778.75
2022-08-20T03:27:51.095Z,99783.38
2022-08-20T03:30:57.131Z,99793.38
2022-08-20T03:33:59.050Z,99798.78
2022-08-20T03:37:00.700Z,99810.13
2022-08-20T03:40:06.609Z,99805.94
2022-08-20T03:43:09.560Z,99806.53
2022-08-20T03:46:23.593Z,99803.81
2022-08-20T03:49:25.421Z,99803.87
2022-08-20T03:52:28.629Z,99812.91
2022-08-20T03:55:32.182Z,99811.13
2022-08-20T03:58:35.917Z,99819.84
2022-08-20T04:01:46.395Z,99826.91
2022-08-20T04:04:48.707Z,99831.13
2022-08-20T04:07:50.906Z,99840.87
2022-08-20T04:10:54.035Z,99845.12
2022-08-20T04:13:55.749Z,99858.31
2022-08-20T04:16:57.743Z,99855.31
2022-08-20T04:20:04.045Z,99853.19
2022-08-20T04:23:06.123Z,99847.81
2022-08-20T04:26:08.009Z,99842.09
2022-08-20T04:29:10.082Z,99831.19
2022-08-20T04:32:12.337Z,99822.09
2022-08-20T04:35:16.415Z,99829.06
2022-08-20T04:38:20.236Z,99834.44
2022-08-20T04:41:24.247Z,99838.97
2022-08-20T04:44:26.297Z,99833.78
2022-08-20T04:47:34.833Z,99835.00
2022-08-20T04:50:39.919Z,99830.69
2022-08-20T04:53:42.901Z,99810.69
2022-08-20T04:56:44.703Z,99818.84
2022-08-20T04:59:46.869Z,99806.31
2022-08-20T05:02:49.266Z,99810.59
2022-08-20T05:05:52.027Z,99812.38
2022-08-20T05:08:55.938Z,99805.84
2022-08-20T05:11:57.939Z,99803.97
2022-08-20T05:15:00.234Z,99800.91
2022-08-20T05:18:04.254Z,99814.94
2022-08-20T05:21:06.336Z,99816.75
2022-08-20T05:24:08.353Z,99814.38
2022-08-20T05:27:10.506Z,99815.53
2022-08-20T05:30:36.077Z,99805.63
2022-08-20T05:33:39.527Z,99805.75
2022-08-20T05:36:46.997Z,99804.75
2022-08-20T05:39:51.089Z,99813.28
2022-08-20T05:42:54.077Z,99816.56
2022-08-20T05:45:58.565Z,99815.50
2022-08-20T05:49:01.886Z,99810.53
2022-08-20T05:52:05.659Z,99811.09
2022-08-20T05:55:09.960Z,99814.69
2022-08-20T05:58:20.739Z,99815.25
2022-08-20T06:01:22.882Z,99815.84
2022-08-20T06:04:24.979Z,99800.69
2022-08-20T06:07:27.463Z,99797.56
2022-08-20T06:10:29.229Z,99803.94
2022-08-20T06:13:30.889Z,99812.88
2022-08-20T06:16:32.950Z,99822.22
2022-08-20T06:19:36.211Z,99832.34
2022-08-20T06:22:38.324Z,99840.75
2022-08-20T06:25:40.218Z,99846.72
2022-08-20T06:28:42.442Z,99847.16
2022-08-20T06:31:44.055Z,99853.34
2022-08-20T06:34:50.983Z,99840.97
2022-08-20T06:37:53.395Z,99845.97
2022-08-20T06:40:55.191Z,99847.22
2022-08-20T06:43:56.867Z,99850.38
2022-08-20T06:47:03.943Z,99853.69
2022-08-20T06:50:09.222Z,99852.34
2022-08-20T06:53:13.427Z,99846.59
2022-08-20T06:56:15.170Z,99853.53
2022-08-20T06:59:16.985Z,99856.78
2022-08-20T07:02:18.775Z,99861.38
2022-08-20T07:05:21.118Z,99858.88
2022-08-20T07:08:22.960Z,99858.13
2022-08-20T07:11:28.206Z,99866.59
2022-08-20T07:14:30.331Z,99864.53
2022-08-20T07:17:32.019Z,99864.91
2022-08-20T07:20:36.293Z,99865.38
2022-08-20T07:23:38.310Z,99869.31
2022-08-20T07:26:40.376Z,99876.41
2022-08-20T07:30:00.843Z,99871.97
2022-08-20T07:33:02.533Z,99886.09
2022-08-20T07:36:10.567Z,99897.78
2022-08-20T07:39:12.259Z,99905.88
2022-08-20T07:42:14.102Z,99910.03
2022-08-20T07:45:18.777Z,99908.59
2022-08-20T07:48:27.916Z,99916.75
2022-08-20T07:51:33.762Z,99923.63
2022-08-20T07:54:38.099Z,99928.34
2022-08-20T07:57:40.062Z,99942.50
2022-08-20T08:00:43.479Z,99976.22
2022-08-20T08:03:50.065Z,99996.13
2022-08-20T08:06:53.120Z,99989.31
2022-08-20T08:09:57.038Z,99999.19
2022-08-20T08:13:02.874Z,99989.66
2022-08-20T08:16:06.878Z,100008.53
2022-08-20T08:19:12.138Z,100044.37
2022-08-20T08:22:16.536Z,100083.34
2022-08-20T08:25:18.525Z,100118.97
2022-08-20T08:28:21.055Z,100149.66
2022-08-20T08:31:22.794Z,100146.28
2022-08-20T08:34:25.726Z,100153.69
2022-08-20T08:37:30.655Z,100148.56
2022-08-20T08:40:33.866Z,100126.88
2022-08-20T08:43:35.798Z,100130.78
2022-08-20T08:46:44.173Z,100137.84
2022-08-20T08:49:48.128Z,100123.00
2022-08-20T08:52:54.606Z,100102.13
2022-08-20T08:55:56.279Z,100086.22
2022-08-20T08:59:08.849Z,100053.78
2022-08-20T09:02:20.436Z,100034.44
2022-08-20T09:05:27.116Z,100020.22
2022-08-20T09:08:51.344Z,100013.06
2022-08-20T09:11:56.038Z,100016.47
2022-08-20T09:14:58.374Z,100026.25
2022-08-20T09:18:00.033Z,100027.25
2022-08-20T09:21:02.089Z,100022.84
2022-08-20T09:24:05.090Z,100009.63
2022-08-20T09:27:07.120Z,100001.44
2022-08-20T09:30:10.076Z,100005.69
2022-08-20T09:33:12.252Z,100022.69
2022-08-20T09:36:28.717Z,100052.81
2022-08-20T09:39:34.386Z,100111.00
2022-08-20T09:42:41.398Z,100089.22
2022-08-20T09:45:43.664Z,100047.34
2022-08-20T09:48:46.286Z,100036.91
2022-08-20T09:51:48.201Z,100028.00
2022-08-20T09:54:52.534Z,100020.94
2022-08-20T09:57:54.358Z,100031.50
2022-08-20T10:00:56.847Z,100023.47
2022-08-20T10:03:59.209Z,100019.13
2022-08-20T10:07:01.203Z,100012.09
2022-08-20T10:10:03.780Z,100012.84
2022-08-20T10:13:05.620Z,100019.03
2022-08-20T10:16:07.587Z,100031.41
2022-08-20T10:19:09.606Z,100016.44
2022-08-20T10:22:11.450Z,100013.69
2022-08-20T10:25:13.586Z,100000.44
2022-08-20T10:28:15.417Z,99995.09
2022-08-20T10:31:17.139Z,99997.69
2022-08-20T10:34:18.928Z,100005.69
2022-08-20T10:37:23.475Z,100010.13
2022-08-20T10:40:25.465Z,100009.19
2022-08-20T10:43:28.167Z,100012.75
2022-08-20T10:46:30.333Z,100027.75
2022-08-20T10:49:34.649Z,100030.34
2022-08-20T10:52:36.714Z,100025.81
2022-08-20T10:55:38.880Z,100031.94
2022-08-20T10:58:41.310Z,100044.00
2022-08-20T11:01:43.106Z,100044.13
2022-08-20T11:04:47.520Z,100058.09
2022-08-20T11:07:56.101Z,100063.38
2022-08-20T11:10:58.690Z,100049.31
2022-08-20T11:14:00.426Z,100046.87
2022-08-20T11:17:03.128Z,100053.06
2022-08-20T11:20:07.137Z,100038.09
2022-08-20T11:23:09.097Z,100046.94
2022-08-20T11:26:15.672Z,100038.94
2022-08-20T11:29:17.791Z,100021.38
2022-08-20T11:32:19.947Z,100015.94
2022-08-20T11:35:48.254Z,100006.34
2022-08-20T11:38:45.565Z,100006.31
2022-08-20T11:41:47.542Z,99996.00
2022-08-20T11:44:56.925Z,99987.31
2022-08-20T11:47:58.657Z,99972.59
2022-08-20T11:51:02.233Z,99947.13
2022-08-20T11:54:05.336Z,99932.53
2022-08-20T11:57:08.802Z,99913.12
2022-08-20T12:00:21.794Z,99912.19
2022-08-20T12:03:34.329Z,99905.97
2022-08-20T12:06:36.140Z,99891.81
2022-08-20T12:09:41.942Z,99900.50
2022-08-20T12:12:52.412Z,99896.91
2022-08-20T12:15:55.755Z,99906.28
2022-08-20T12:18:57.675Z,99947.00
2022-08-20T12:21:59.398Z,99955.34
2022-08-20T12:25:21.472Z,99950.78
2022-08-20T12:28:25.969Z,99945.44
2022-08-20T12:31:28.141Z,99939.72
2022-08-20T12:34:29.748Z,99947.91
2022-08-20T12:37:31.970Z,99941.22
2022-08-20T12:40:35.291Z,99931.00
2022-08-20T12:43:37.435Z,99939.94
2022-08-20T12:46:39.059Z,99927.78
2022-08-20T12:49:49.954Z,99953.97
2022-08-20T12:52:51.744Z,99967.62
2022-08-20T12:55:53.355Z,99970.09
2022-08-20T12:58:55.182Z,99974.78
2022-08-20T13:01:57.819Z,99969.28
2022-08-20T13:05:10.192Z,99965.31
2022-08-20T13:08:13.251Z,99951.47
2022-08-20T13:11:14.901Z,99937.81
2022-08-20T13:14:16.634Z,99938.50
2022-08-20T13:17:19.196Z,99925.06
2022-08-20T13:20:31.670Z,99929.25
2022-08-20T13:23:36.782Z,99919.41
2022-08-20T13:26:38.467Z,99902.13
2022-08-20T13:29:49.983Z,99882.34
2022-08-20T13:32:51.967Z,99905.09
2022-08-20T13:35:54.097Z,99898.88
2022-08-20T13:38:56.440Z,99898.16
2022-08-20T13:41:58.057Z,99928.09
2022-08-20T13:45:00.239Z,99937.69
2022-08-20T13:48:02.074Z,99936.25
2022-08-20T13:51:03.812Z,99928.53
2022-08-20T13:54:10.830Z,99908.47
2022-08-20T13:57:17.017Z,99910.06
2022-08-20T14:00:31.518Z,99912.63
2022-08-20T14:03:35.334Z,99933.84
2022-08-20T14:06:37.074Z,99923.19
2022-08-20T14:09:41.704Z,99910.37
2022-08-20T14:12:43.516Z,99898.12
2022-08-20T14:15:45.874Z,99888.44
2022-08-20T14:18:51.074Z,99865.38
2022-08-20T14:21:54.819Z,99852.97
2022-08-20T14:24:56.821Z,99858.94
2022-08-20T14:27:59.684Z,99859.16
2022-08-20T14:31:01.636Z,99873.53
2022-08-20T14:34:03.291Z,99867.31
2022-08-20T14:37:23.559Z,99868.00
2022-08-20T14:40:27.634Z,99872.56
2022-08-20T14:43:29.287Z,99873.69
2022-08-20T14:46:30.942Z,99869.22
2022-08-20T14:49:33.126Z,99878.06
2022-08-20T14:52:36.743Z,99876.69
2022-08-20T14:55:38.898Z,99875.81
2022-08-20T14:58:40.498Z,99854.81
2022-08-20T15:01:42.461Z,99855.38
2022-08-20T15:04:45.618Z,99855.16
2022-08-20T15:07:57.359Z,99858.03
2022-08-20T15:11:01.270Z,99860.50
2022-08-20T15:14:03.041Z,99853.97
2022-08-20T15:17:04.839Z,99859.62
2022-08-20T15:20:20.739Z,99870.34
2022-08-20T15:23:23.976Z,99864.16
2022-08-20T15:26:25.779Z,99871.78
2022-08-20T15:29:27.605Z,99879.41
2022-08-20T15:32:29.554Z,99881.66
2022-08-20T15:35:31.175Z,99894.94
2022-08-20T15:38:33.457Z,99903.97
2022-08-20T15:41:35.299Z,99912.94
2022-08-20T15:44:37.971Z,99932.06
2022-08-20T15:47:54.898Z,99931.84
2022-08-20T15:51:23.467Z,99938.19
2022-08-20T15:54:27.741Z,99938.47
2022-08-20T15:57:29.614Z,99940.41
2022-08-20T16:00:52.545Z,99936.47
2022-08-20T16:04:10.594Z,99940.87
2022-08-20T16:07:19.406Z,99948.56
2022-08-20T16:10:31.436Z,99954.22
2022-08-20T16:13:44.053Z,99951.50
2022-08-20T16:16:50.690Z,99948.09
2022-08-20T16:20:08.916Z,99949.53
2022-08-20T16:23:12.537Z,99960.50
2022-08-20T16:26:40.186Z,99948.69
2022-08-20T16:30:09.965Z,99948.56
2022-08-20T16:33:25.985Z,99961.44
2022-08-20T16:36:38.883Z,99957.56
2022-08-20T16:39:53.886Z,99956.66
2022-08-20T16:43:01.985Z,99965.13
2022-08-20T16:46:16.546Z,99967.88
2022-08-20T16:49:18.426Z,99965.19
2022-08-20T16:52:20.022Z,99959.84
2022-08-20T16:55:23.172Z,99963.22
2022-08-20T16:58:25.912Z,99956.91
2022-08-20T17:01:27.762Z,99959.34
2022-08-20T17:04:29.629Z,99958.53
2022-08-20T17:07:46.786Z,99961.38
2022-08-20T17:11:10.889Z,99959.62
2022-08-20T17:14:18.724Z,99952.63
2022-08-20T17:17:22.493Z,99944.72
2022-08-20T17:20:29.076Z,99957.03
2022-08-20T17:23:54.760Z,99953.56
2022-08-20T17:27:02.259Z,99934.00
2022-08-20T17:30:20.018Z,99939.81
2022-08-20T17:33:31.778Z,99939.19
2022-08-20T17:36:33.856Z,99931.19
2022-08-20T17:39:46.092Z,99915.84
2022-08-20T17:42:52.556Z,99920.41
2022-08-20T17:45:56.372Z,99920.16
2022-08-20T17:49:01.933Z,99914.00
2022-08-20T17:52:09.766Z,99906.44
2022-08-20T17:55:13.203Z,99907.41
2022-08-20T17:58:17.221Z,99896.88
2022-08-20T18:01:21.343Z,99889.63
2022-08-20T18:04:23.267Z,99873.88
2022-08-20T18:07:37.323Z,99877.75
2022-08-20T18:10:52.687Z,99870.84
2022-08-20T18:14:15.698Z,99872.19
2022-08-20T18:17:46.399Z,99866.19
2022-08-20T18:21:09.634Z,99872.44
2022-08-20T18:24:36.226Z,99874.25
2022-08-20T18:27:48.624Z,99869.50
2022-08-20T18:30:57.232Z,99860.78
2022-08-20T18:34:21.786Z,99860.00
2022-08-20T18:37:27.732Z,99873.19
2022-08-20T18:40:33.578Z,99874.44
2022-08-20T18:43:36.566Z,99876.38
2022-08-20T18:46:59.914Z,99888.44
2022-08-20T18:50:30.473Z,99898.56
2022-08-20T18:53:34.450Z,99895.91
2022-08-20T18:56:40.473Z,99887.91
2022-08-20T18:59:46.033Z,99877.16
2022-08-20T19:03:03.694Z,99877.78
2022-08-20T19:06:23.991Z,99878.84
2022-08-20T19:09:59.896Z,99875.72
2022-08-20T19:13:18.683Z,99864.91
2022-08-20T19:16:40.662Z,99861.00
2022-08-20T19:19:42.923Z,99858.34
2022-08-20T19:22:47.232Z,99851.69
2022-08-20T19:25:59.952Z,99862.63
2022-08-20T19:29:10.639Z,99871.13
2022-08-20T19:32:19.784Z,99876.09
2022-08-20T19:35:24.565Z,99862.59
2022-08-20T19:38:26.286Z,99869.09
2022-08-20T19:41:35.361Z,99868.38
2022-08-20T19:44:45.115Z,99879.22
2022-08-20T19:47:56.456Z,99885.09
2022-08-20T19:51:14.987Z,99880.13
2022-08-20T19:54:25.146Z,99871.22
2022-08-20T19:57:27.210Z,99866.25
2022-08-20T20:00:37.404Z,99867.09
2022-08-20T20:03:39.444Z,99873.94
2022-08-20T20:06:45.424Z,99867.34
2022-08-20T20:09:51.271Z,99872.94
2022-08-20T20:12:53.342Z,99873.22
2022-08-20T20:15:57.774Z,99882.44
2022-08-20T20:19:24.764Z,99876.84
2022-08-20T20:22:29.663Z,99868.56
2022-08-20T20:25:33.865Z,99866.16
2022-08-20T20:28:51.547Z,99869.72
2022-08-20T20:31:57.693Z,99884.94
2022-08-20T20:35:01.117Z,99883.19
2022-08-20T20:38:06.609Z,99877.66
2022-08-20T20:41:21.618Z,99871.34
2022-08-20T20:44:27.012Z,99885.91
2022-08-20T20:47:32.376Z,99884.41
2022-08-20T20:50:38.707Z,99878.91
2022-08-20T20:53:53.287Z,99874.19
2022-08-20T20:57:01.267Z,99871.66
2022-08-20T21:00:04.754Z,99864.19
2022-08-20T21:03:08.279Z,99861.63
2022-08-20T21:06:10.319Z,99861.53
2022-08-20T21:09:12.510Z,99859.94
2022-08-20T21:12:14.142Z,99858.69
2022-08-20T21:15:16.089Z,99861.59
2022-08-20T21:18:17.880Z,99863.16
2022-08-20T21:21:19.790Z,99856.28
2022-08-20T21:24:21.844Z,99870.19
2022-08-20T21:27:27.099Z,99861.94
2022-08-20T21:30:29.367Z,99863.50
2022-08-20T21:33:31.193Z,99858.25
2022-08-20T21:36:33.179Z,99856.31
2022-08-20T21:39:34.974Z,99860.22
2022-08-20T21:42:38.920Z,99855.87
2022-08-20T21:45:41.209Z,99845.91
2022-08-20T21:48:48.129Z,99849.59
2022-08-20T21:51:50.674Z,99847.00
2022-08-20T21:54:52.699Z,99853.19
2022-08-20T21:57:54.638Z,99851.97
2022-08-20T22:01:02.769Z,99854.72
2022-08-20T22:04:08.952Z,99852.19
2022-08-20T22:07:11.312Z,99858.84
2022-08-20T22:10:12.952Z,99860.25
2022-08-20T22:13:14.926Z,99858.06
2022-08-20T22:16:19.484Z,99855.47
2022-08-20T22:19:21.491Z,99844.97
2022-08-20T22:22:23.719Z,99837.09
2022-08-20T22:25:25.378Z,99826.47
2022-08-20T22:28:27.365Z,99826.47
2022-08-20T22:31:33.201Z,99828.19
2022-08-20T22:34:37.329Z,99837.84
2022-08-20T22:37:39.336Z,99833.41
2022-08-20T22:40:42.169Z,99825.78
2022-08-20T22:43:56.755Z,99826.63
2022-08-20T22:47:04.783Z,99827.22
2022-08-20T22:50:08.612Z,99820.28
2022-08-20T22:53:10.809Z,99814.19
2022-08-20T22:56:19.833Z,99806.12
2022-08-20T22:59:24.106Z,99812.25
2022-08-20T23:02:26.024Z,99810.37
2022-08-20T23:05:31.038Z,99803.72
2022-08-20T23:08:32.962Z,99795.34
2022-08-20T23:11:34.615Z,99795.69
2022-08-20T23:14:37.151Z,99805.09
2022-08-20T23:17:39.231Z,99788.09
2022-08-20T23:20:45.810Z,99793.75
2022-08-20T23:23:47.741Z,99801.81
2022-08-20T23:26:52.874Z,99813.91
2022-08-20T23:29:55.387Z,99807.75
2022-08-20T23:32:57.570Z,99810.03
2022-08-20T23:36:07.211Z,99803.87
2022-08-20T23:39:09.927Z,99802.34
2022-08-20T23:42:12.033Z,99797.94
2022-08-20T23:45:15.561Z,99796.75
2022-08-20T23:48:17.877Z,99802.75
2022-08-20T23:51:21.398Z,99804.28
2022-08-20T23:54:23.122Z,99798.41
2022-08-20T23:57:25.095Z,99798.13
